Time;durP1;ratioP1;P1;durP2;ratioP2;P2;SDS_P1;SDS_P2;PMS_P1;PMS_P2;Temp;Humidity;BMP_temperature;BMP_pressure;BME280_temperature;BME280_humidity;BME280_pressure;Samples;Min_cycle;Max_cycle;Signal;HPM_P1;HPM_P2
2022/06/18 00:01:35;;;;;;;6.00;4.47;;;;;;;18.68;100.00;152347.38;1715825;83;21881;-61
2022/06/18 00:04:10;;;;;;;7.35;4.25;;;;;;;18.69;100.00;152350.03;1715708;83;21072;-61
2022/06/18 00:06:59;;;;;;;7.42;4.97;;;;;;;18.75;100.00;152366.97;1715052;83;21032;-62
2022/06/18 00:09:34;;;;;;;8.40;4.90;;;;;;;18.78;100.00;152373.50;1715503;83;21074;-61
2022/06/18 00:15:03;;;;;;;6.83;4.28;;;;;;;18.78;100.00;152373.50;1715671;83;21247;-62
2022/06/18 00:17:32;;;;;;;6.65;4.58;;;;;;;18.81;100.00;152380.05;1715514;83;21064;-62
2022/06/18 00:19:59;;;;;;;8.85;4.45;;;;;;;18.78;100.00;152372.17;1714323;83;21036;-62
2022/06/18 00:22:26;;;;;;;6.70;4.42;;;;;;;18.74;100.00;152364.36;1710028;83;21045;-61
2022/06/18 00:24:53;;;;;;;8.35;4.80;;;;;;;18.71;100.00;152355.25;1710273;83;21008;-62
2022/06/18 00:27:21;;;;;;;12.03;4.85;;;;;;;18.67;100.00;152346.09;1721035;82;21858;-62
2022/06/18 00:29:51;;;;;;;7.42;4.83;;;;;;;18.65;100.00;152340.89;1739490;82;21033;-62
2022/06/18 00:32:18;;;;;;;6.15;4.58;;;;;;;18.64;100.00;152336.95;1762814;81;21000;-61
2022/06/18 00:34:46;;;;;;;7.22;4.87;;;;;;;18.63;100.00;152334.34;1739475;81;21046;-62
2022/06/18 00:37:16;;;;;;;8.58;5.08;;;;;;;18.57;100.00;152320.03;1762772;81;21020;-62
2022/06/18 00:39:43;;;;;;;9.65;4.78;;;;;;;18.47;100.00;152295.23;1739376;81;21234;-63
2022/06/18 00:42:16;;;;;;;6.87;5.17;;;;;;;18.38;100.00;152271.72;1762459;81;20965;-63
2022/06/18 00:44:44;;;;;;;8.95;5.67;;;;;;;18.33;100.00;152259.97;1738585;81;20959;-62
2022/06/18 00:47:32;;;;;;;8.75;6.00;;;;;;;18.28;100.00;152248.25;1762790;81;21032;-62
2022/06/18 00:50:08;;;;;;;8.20;5.78;;;;;;;18.20;100.00;152227.36;1739605;81;21030;-62
2022/06/18 00:52:53;;;;;;;7.65;5.58;;;;;;;18.13;100.00;152209.11;1762844;81;21840;-62
2022/06/18 00:55:25;;;;;;;10.00;5.95;;;;;;;18.08;100.00;152197.36;1762713;81;21456;-62
2022/06/18 00:57:58;;;;;;;7.58;5.92;;;;;;;18.00;100.00;152177.73;1747772;81;21480;-62
2022/06/18 01:00:45;;;;;;;10.93;6.25;;;;;;;17.89;100.00;152149.06;1739422;82;21066;-62
2022/06/18 01:03:30;;;;;;;9.75;5.97;;;;;;;17.76;100.00;152117.73;1739387;82;21022;-61
2022/06/18 01:06:02;;;;;;;8.68;5.75;;;;;;;17.67;100.00;152094.28;1763003;81;21231;-62
2022/06/18 01:08:32;;;;;;;12.20;6.55;;;;;;;17.60;100.00;152077.31;1739401;81;21060;-63
2022/06/18 01:11:02;;;;;;;8.93;6.42;;;;;;;17.57;100.00;152068.19;1763058;81;21007;-62
2022/06/18 01:13:34;;;;;;;7.40;6.22;;;;;;;17.54;100.00;152060.36;1739662;82;21432;-62
2022/06/18 01:16:01;;;;;;;10.75;6.17;;;;;;;17.52;100.00;152055.16;1763193;81;21044;-63
2022/06/18 01:18:29;;;;;;;9.85;7.03;;;;;;;17.47;100.00;152044.72;1739596;82;21239;-62
2022/06/18 01:21:38;;;;;;;8.40;5.95;;;;;;;17.46;100.00;152042.12;1758396;80;21024;-62
2022/06/18 01:24:17;;;;;;;11.95;5.30;;;;;;;17.43;100.00;152034.31;1754469;80;21004;-63
2022/06/18 01:26:48;;;;;;;7.42;6.08;;;;;;;17.38;100.00;152021.28;1706074;84;21011;-62
2022/06/18 01:29:15;;;;;;;9.40;6.00;;;;;;;17.35;100.00;152012.14;1675920;84;21042;-62
2022/06/18 01:31:46;;;;;;;14.07;6.42;;;;;;;17.35;100.00;152013.41;1706054;83;21018;-63
2022/06/18 01:34:14;;;;;;;7.47;5.33;;;;;;;17.35;100.00;152013.41;1675734;84;21018;-63
2022/06/18 01:36:43;;;;;;;11.38;6.53;;;;;;;17.34;100.00;152010.81;1675680;84;21063;-63
2022/06/18 01:39:13;;;;;;;8.83;6.05;;;;;;;17.30;100.00;152000.39;1705629;84;21066;-63
2022/06/18 01:41:50;;;;;;;8.38;6.12;;;;;;;17.27;100.00;151992.56;1675534;85;21011;-62
2022/06/18 01:44:27;;;;;;;10.15;5.53;;;;;;;17.25;100.00;151987.36;1705412;83;21869;-62
2022/06/18 01:46:58;;;;;;;9.68;6.45;;;;;;;17.24;100.00;151986.08;1705398;82;21015;-62
2022/06/18 01:49:30;;;;;;;7.03;5.87;;;;;;;17.24;100.00;151984.75;1675780;84;21050;-62
2022/06/18 01:52:01;;;;;;;7.62;6.58;;;;;;;17.20;100.00;151974.33;1705788;82;21059;-63
2022/06/18 01:54:42;;;;;;;6.78;6.08;;;;;;;17.16;100.00;151966.52;1718612;83;21118;-62
2022/06/18 01:57:16;;;;;;;10.70;6.53;;;;;;;17.11;100.00;151953.45;1675953;84;21214;-62
2022/06/18 01:59:52;;;;;;;9.45;6.50;;;;;;;17.06;100.00;151940.42;1704831;83;21010;-63
2022/06/18 02:02:21;;;;;;;7.92;6.28;;;;;;;16.99;100.00;151923.47;1675790;84;21015;-62
2022/06/18 02:04:48;;;;;;;10.82;6.85;;;;;;;16.96;100.00;151914.33;1705819;83;21070;-63
2022/06/18 02:07:16;;;;;;;10.23;6.75;;;;;;;16.94;100.00;151909.13;1676023;85;21501;-62
2022/06/18 02:10:01;;;;;;;7.45;6.12;;;;;;;16.89;100.00;151897.38;1706001;83;21051;-62
2022/06/18 02:12:33;;;;;;;11.12;6.33;;;;;;;16.86;100.00;151890.84;1676927;84;21003;-63
2022/06/18 02:15:04;;;;;;;8.95;5.95;;;;;;;16.85;100.00;151888.23;1677535;85;21018;-63
2022/06/18 02:17:33;;;;;;;13.00;7.08;;;;;;;16.83;100.00;151883.03;1677298;84;21484;-62
2022/06/18 02:20:20;;;;;;;8.93;6.62;;;;;;;16.81;100.00;151877.81;1677457;85;21572;-63
2022/06/18 02:22:51;;;;;;;8.73;6.58;;;;;;;16.81;100.00;151877.81;1677464;84;21809;-63
2022/06/18 02:25:20;;;;;;;9.45;6.83;;;;;;;16.85;100.00;151888.23;1677250;85;21047;-63
2022/06/18 02:27:47;;;;;;;10.35;6.80;;;;;;;16.89;100.00;151898.66;1691025;84;21062;-63
2022/06/18 02:30:17;;;;;;;7.12;6.03;;;;;;;16.97;100.00;151916.94;1677361;85;21034;-62
2022/06/18 02:33:05;;;;;;;8.35;5.17;;;;;;;17.07;100.00;151943.03;1677694;85;21600;-63
2022/06/18 02:35:32;;;;;;;7.25;5.33;;;;;;;17.18;100.00;151970.41;1677404;85;21236;-62
2022/06/18 02:37:59;;;;;;;7.55;5.95;;;;;;;17.25;100.00;151987.36;1677396;84;21102;-62
2022/06/18 02:40:29;;;;;;;5.50;4.83;;;;;;;17.30;100.00;152001.72;1677282;84;21504;-63
2022/06/18 02:42:59;;;;;;;9.15;5.15;;;;;;;17.38;100.00;152019.95;1677597;85;21042;-62
2022/06/18 02:45:29;;;;;;;8.45;5.65;;;;;;;17.46;100.00;152040.80;1677332;85;21089;-63
2022/06/18 02:47:59;;;;;;;9.35;6.10;;;;;;;17.51;100.00;152053.87;1677760;84;21197;-62
2022/06/18 02:50:30;;;;;;;9.10;5.72;;;;;;;17.55;100.00;152062.97;1667499;84;21027;-63
2022/06/18 02:53:02;;;;;;;6.42;5.00;;;;;;;17.57;100.00;152068.19;1677350;84;21102;-62
2022/06/18 02:55:42;;;;;;;6.55;5.28;;;;;;;17.61;100.00;152079.94;1667396;85;21054;-63
2022/06/18 02:58:26;;;;;;;7.47;5.05;;;;;;;17.68;100.00;152096.89;1677547;85;21087;-62
2022/06/18 03:00:59;;;;;;;7.53;4.83;;;;;;;17.71;100.00;152103.44;1677244;85;22846;-62
2022/06/18 03:03:31;;;;;;;7.75;5.15;;;;;;;17.73;100.00;152109.92;1677242;84;21081;-62
2022/06/18 03:06:00;;;;;;;6.03;5.42;;;;;;;17.75;100.00;152115.13;1677298;84;21015;-62
2022/06/18 03:08:29;;;;;;;8.38;6.30;;;;;;;17.77;100.00;152119.06;1677242;84;21102;-62
2022/06/18 03:13:44;;;;;;;7.55;6.20;;;;;;;17.78;100.00;152120.34;1677456;85;21817;-62
2022/06/18 03:16:13;;;;;;;7.50;5.37;;;;;;;17.78;100.00;152120.34;1677283;84;21043;-61
2022/06/18 03:18:41;;;;;;;8.00;5.87;;;;;;;17.78;100.00;152120.34;1677570;84;21047;-62
2022/06/18 03:21:35;;;;;;;8.00;5.92;;;;;;;17.76;100.00;152117.73;1686091;82;21034;-62
2022/06/18 03:24:03;;;;;;;7.28;5.47;;;;;;;17.78;100.00;152120.34;1759894;80;21036;-62
2022/06/18 03:26:30;;;;;;;5.85;5.25;;;;;;;17.83;100.00;152133.42;1733655;81;21207;-62
2022/06/18 03:28:58;;;;;;;6.20;5.60;;;;;;;17.86;100.00;152142.52;1759715;80;21032;-61
2022/06/18 03:31:25;;;;;;;7.60;5.58;;;;;;;17.86;100.00;152142.52;1733527;81;21050;-62
2022/06/18 03:33:53;;;;;;;6.20;5.60;;;;;;;17.87;100.00;152143.84;1759891;81;21005;-62
2022/06/18 03:36:20;;;;;;;6.80;5.87;;;;;;;17.87;100.00;152143.84;1733790;81;21082;-62
2022/06/18 03:38:48;;;;;;;6.12;5.35;;;;;;;17.83;100.00;152133.42;1759915;80;21944;-62
2022/06/18 03:41:17;;;;;;;8.15;5.60;;;;;;;17.83;100.00;152133.42;1734002;82;21502;-61
2022/06/18 03:43:45;;;;;;;6.17;5.58;;;;;;;17.85;100.00;152138.64;1759769;81;20985;-61
2022/06/18 03:46:16;;;;;;;6.47;5.78;;;;;;;17.81;100.00;152128.22;1732472;81;21047;-62
2022/06/18 03:48:52;;;;;;;8.50;5.90;;;;;;;17.73;100.00;152109.92;1759449;80;21288;-63
2022/06/18 03:51:19;;;;;;;10.10;6.50;;;;;;;17.65;100.00;152089.06;1759658;81;21240;-56
2022/06/18 03:53:47;;;;;;;10.40;6.25;;;;;;;17.54;100.00;152060.36;1733632;81;20976;-56
2022/06/18 03:56:17;;;;;;;9.05;6.12;;;;;;;17.50;100.00;152049.94;1759408;81;21086;-56
2022/06/18 03:58:45;;;;;;;9.58;5.97;;;;;;;17.49;100.00;152047.33;1732710;81;21003;-56
2022/06/18 04:01:15;;;;;;;10.05;7.25;;;;;;;17.49;100.00;152047.33;1759560;80;21450;-56
2022/06/18 04:03:43;;;;;;;7.62;6.05;;;;;;;17.47;100.00;152044.72;1733596;82;21432;-56
2022/06/18 04:06:16;;;;;;;9.23;7.45;;;;;;;17.44;100.00;152035.58;1759208;81;21517;-55
2022/06/18 04:08:45;;;;;;;8.85;7.95;;;;;;;17.33;100.00;152009.53;1732206;81;20955;-56
2022/06/18 04:11:22;;;;;;;8.98;7.72;;;;;;;17.21;100.00;151976.94;1759753;80;21052;-56
2022/06/18 04:13:50;;;;;;;11.12;7.92;;;;;;;17.15;100.00;151963.92;1734003;81;21058;-55
2022/06/18 04:16:35;;;;;;;11.95;8.98;;;;;;;17.13;100.00;151958.70;1759643;80;21115;-55
2022/06/18 04:19:10;;;;;;;10.68;9.28;;;;;;;17.16;100.00;151966.52;1733328;81;21031;-55
2022/06/18 04:21:38;;;;;;;13.35;9.63;;;;;;;17.24;100.00;151984.75;1757490;81;20999;-56
2022/06/18 04:24:05;;;;;;;13.03;10.45;;;;;;;17.37;100.00;152018.67;1754623;81;21075;-56
2022/06/18 04:26:35;;;;;;;17.30;11.43;;;;;;;17.45;100.00;152039.52;1754168;81;21103;-56
2022/06/18 04:29:03;;;;;;;18.50;11.57;;;;;;;17.53;100.00;152057.75;1754566;80;21225;-55
2022/06/18 04:31:30;;;;;;;15.20;11.73;;;;;;;17.46;100.00;152042.12;1754481;81;20925;-56
2022/06/18 04:34:00;;;;;;;14.50;11.75;;;;;;;17.51;100.00;152052.55;1754516;81;20996;-56
2022/06/18 04:36:35;;;;;;;16.17;12.73;;;;;;;17.63;100.00;152083.86;1753907;81;21457;-55
2022/06/18 04:39:05;;;;;;;14.95;12.78;;;;;;;17.68;100.00;152096.89;1742844;80;21470;-55
2022/06/18 04:41:33;;;;;;;16.67;11.97;;;;;;;17.73;100.00;152109.92;1752253;81;21342;-55
2022/06/18 04:44:03;;;;;;;14.38;12.33;;;;;;;17.78;100.00;152121.67;1754483;81;21012;-55
2022/06/18 04:46:30;;;;;;;18.98;12.10;;;;;;;17.84;100.00;152136.03;1760526;81;21418;-56
2022/06/18 04:48:57;;;;;;;15.88;12.45;;;;;;;17.89;100.00;152149.06;1754395;80;21008;-56
2022/06/18 04:51:24;;;;;;;14.65;11.20;;;;;;;17.90;100.00;152151.67;1754298;81;21020;-56
2022/06/18 04:53:53;;;;;;;13.18;11.35;;;;;;;18.00;100.00;152177.73;1754423;80;21233;-56
2022/06/18 04:56:20;;;;;;;16.93;10.98;;;;;;;18.19;100.00;152224.75;1754435;80;21020;-56
2022/06/18 04:58:47;;;;;;;17.30;10.80;;;;;;;18.29;100.00;152250.86;1754479;81;21013;-55
2022/06/18 05:01:20;;;;;;;16.55;11.12;;;;;;;18.36;100.00;152267.84;1754419;81;20984;-55
2022/06/18 05:04:05;;;;;;;13.40;10.32;;;;;;;18.37;100.00;152270.44;1754434;80;21063;-56
2022/06/18 05:06:33;;;;;;;14.68;10.23;;;;;;;18.54;100.00;152313.48;1754371;80;21236;-56
2022/06/18 05:09:14;;;;;;;12.65;9.68;;;;;;;18.63;99.65;152334.34;1754481;80;21534;-56
2022/06/18 05:11:42;;;;;;;13.53;10.18;;;;;;;18.70;99.57;152352.64;1733890;81;21028;-56
2022/06/18 05:14:11;;;;;;;12.82;9.53;;;;;;;18.80;98.29;152377.44;1754489;81;21071;-55
2022/06/18 05:16:45;;;;;;;13.10;10.82;;;;;;;18.94;98.27;152413.95;1753899;80;20972;-55
2022/06/18 05:19:25;;;;;;;14.60;9.70;;;;;;;19.07;97.12;152445.34;1754476;80;21453;-56
2022/06/18 05:21:54;;;;;;;12.45;10.13;;;;;;;19.25;96.09;152491.02;1756138;81;21002;-55
2022/06/18 05:24:22;;;;;;;13.08;9.80;;;;;;;19.44;94.55;152540.64;1759796;81;20984;-56
2022/06/18 05:26:52;;;;;;;12.45;9.28;;;;;;;19.61;91.88;152582.42;1732777;82;21065;-55
2022/06/18 05:29:20;;;;;;;13.62;9.23;;;;;;;19.64;89.98;152590.25;1760073;81;21048;-56
2022/06/18 05:31:47;;;;;;;11.68;8.48;;;;;;;19.66;89.08;152595.47;1733894;82;21116;-56
2022/06/18 05:34:15;;;;;;;10.88;8.48;;;;;;;19.71;87.98;152608.52;1759623;81;21008;-56
2022/06/18 05:36:44;;;;;;;10.53;8.80;;;;;;;19.79;87.80;152626.84;1732083;82;21014;-56
2022/06/18 05:39:16;;;;;;;11.35;8.43;;;;;;;19.91;86.88;152658.19;1759628;81;21608;-56
2022/06/18 05:41:45;;;;;;;11.97;8.43;;;;;;;20.00;86.27;152681.69;1759691;81;21012;-55
2022/06/18 05:44:12;;;;;;;12.30;8.40;;;;;;;20.01;84.67;152684.34;1733894;82;21251;-55
2022/06/18 05:46:38;;;;;;;10.55;8.88;;;;;;;19.99;85.23;152679.08;1759835;81;21007;-56
2022/06/18 05:49:07;;;;;;;12.93;8.48;;;;;;;20.10;85.28;152706.50;1733699;82;21006;-63
2022/06/18 05:51:35;;;;;;;13.30;8.65;;;;;;;20.22;84.81;152736.55;1759400;80;21039;-62
2022/06/18 05:54:03;;;;;;;9.85;8.28;;;;;;;20.31;84.38;152760.09;1733397;81;21050;-61
2022/06/18 05:56:44;;;;;;;9.10;7.53;;;;;;;20.46;82.89;152797.95;1758478;80;21117;-61
2022/06/18 05:59:13;;;;;;;11.88;8.40;;;;;;;20.58;82.07;152828.00;1731516;82;21069;-60
2022/06/18 06:01:42;;;;;;;9.53;7.53;;;;;;;20.58;80.79;152828.00;1759699;81;21032;-62
2022/06/18 06:04:11;;;;;;;9.93;8.05;;;;;;;20.45;80.46;152794.06;1733620;82;21035;-61
2022/06/18 06:06:39;;;;;;;10.58;7.72;;;;;;;20.30;80.76;152757.47;1759498;81;20932;-61
2022/06/18 06:09:07;;;;;;;10.00;8.63;;;;;;;20.14;81.53;152715.66;1732947;82;21242;-62
2022/06/18 06:11:38;;;;;;;13.53;8.00;;;;;;;19.99;81.93;152679.08;1759516;80;21069;-61
2022/06/18 06:14:08;;;;;;;10.13;8.10;;;;;;;19.86;82.43;152645.09;1733418;82;21089;-62
2022/06/18 06:16:35;;;;;;;11.48;8.58;;;;;;;19.71;82.91;152607.23;1759663;80;21031;-62
2022/06/18 06:19:03;;;;;;;11.05;8.23;;;;;;;19.63;83.11;152587.64;1733677;81;22228;-62
2022/06/18 06:21:31;;;;;;;9.23;8.00;;;;;;;19.55;82.98;152566.72;1759595;81;21270;-62
2022/06/18 06:23:59;;;;;;;12.47;8.25;;;;;;;19.49;82.93;152551.06;1731262;81;21043;-62
2022/06/18 06:26:28;;;;;;;9.23;8.13;;;;;;;19.49;82.71;152551.06;1759556;81;21484;-61
2022/06/18 06:28:55;;;;;;;13.13;7.90;;;;;;;19.57;83.05;152571.98;1733499;81;20990;-61
2022/06/18 06:31:22;;;;;;;9.10;7.10;;;;;;;19.72;82.51;152609.84;1759784;80;21020;-62
2022/06/18 06:33:49;;;;;;;10.93;8.45;;;;;;;19.86;82.41;152645.09;1734220;82;21423;-62
2022/06/18 06:36:17;;;;;;;9.73;7.12;;;;;;;20.09;81.44;152702.61;1759696;81;21004;-61
2022/06/18 06:38:44;;;;;;;9.35;6.95;;;;;;;20.30;80.07;152757.47;1733926;82;21448;-55
2022/06/18 06:41:16;;;;;;;8.23;6.00;;;;;;;20.47;79.11;152799.28;1760087;80;21457;-55
2022/06/18 06:43:44;;;;;;;8.75;6.60;;;;;;;20.56;77.49;152822.78;1756893;81;21126;-55
2022/06/18 06:46:12;;;;;;;8.73;7.47;;;;;;;20.60;76.77;152833.22;1733477;82;21970;-55
2022/06/18 06:48:40;;;;;;;9.65;6.90;;;;;;;20.69;76.30;152855.44;1759456;81;20992;-56
2022/06/18 06:51:16;;;;;;;7.00;6.28;;;;;;;20.68;75.55;152851.55;1733875;82;21377;-55
2022/06/18 06:53:43;;;;;;;9.20;6.03;;;;;;;20.51;76.30;152809.73;1759552;81;21023;-56
2022/06/18 06:58:58;;;;;;;10.85;6.75;;;;;;;20.52;76.40;152812.34;1759664;80;21139;-56
2022/06/18 07:01:25;;;;;;;13.43;7.90;;;;;;;20.70;76.03;152856.78;1733420;81;21065;-56
2022/06/18 07:03:52;;;;;;;7.50;6.15;;;;;;;20.84;75.44;152892.09;1759790;81;21028;-56
2022/06/18 07:06:21;;;;;;;6.50;5.70;;;;;;;21.00;75.45;152932.59;1733822;82;21009;-56
2022/06/18 07:08:48;;;;;;;6.37;5.70;;;;;;;21.26;74.53;152997.94;1759654;80;20989;-56
2022/06/18 07:11:17;;;;;;;6.22;5.62;;;;;;;21.44;73.53;153045.00;1732827;82;21507;-56
2022/06/18 07:13:43;;;;;;;5.85;4.92;;;;;;;21.49;71.67;153055.45;1759812;81;21009;-56
2022/06/18 07:16:12;;;;;;;8.35;5.40;;;;;;;21.58;72.26;153079.00;1733982;82;21074;-56
2022/06/18 07:18:40;;;;;;;6.47;4.95;;;;;;;21.72;70.01;153115.63;1759356;80;21031;-55
2022/06/18 07:21:12;;;;;;;6.20;5.35;;;;;;;21.64;70.77;153093.34;1732190;81;20998;-55
2022/06/18 07:23:39;;;;;;;6.95;4.92;;;;;;;21.66;70.91;153099.95;1759442;81;21686;-55
2022/06/18 07:26:09;;;;;;;9.73;5.30;;;;;;;21.80;70.13;153133.97;1732279;82;21589;-56
2022/06/18 07:28:36;;;;;;;7.42;4.42;;;;;;;21.91;69.92;153162.72;1759452;81;21008;-56
2022/06/18 07:31:04;;;;;;;7.55;4.90;;;;;;;22.01;68.32;153187.56;1733629;82;21500;-56
2022/06/18 07:33:33;;;;;;;5.78;4.85;;;;;;;22.02;68.53;153191.50;1759835;80;21035;-56
2022/06/18 07:36:01;;;;;;;9.60;4.58;;;;;;;21.89;67.19;153157.48;1733985;82;21224;-55
2022/06/18 07:38:28;;;;;;;7.72;5.33;;;;;;;21.73;68.57;153118.25;1759759;80;21008;-55
2022/06/18 07:40:55;;;;;;;4.97;4.37;;;;;;;21.75;68.34;153123.47;1733526;82;21047;-55
2022/06/18 07:43:48;;;;;;;5.75;4.58;;;;;;;21.77;68.64;153127.41;1759627;81;21063;-55
2022/06/18 07:46:17;;;;;;;7.33;4.47;;;;;;;21.79;67.31;153131.36;1741769;81;20986;-56
2022/06/18 07:48:44;;;;;;;6.75;4.40;;;;;;;21.60;67.91;153084.23;1733224;82;21208;-56
2022/06/18 07:51:11;;;;;;;5.37;4.35;;;;;;;21.55;68.58;153071.13;1759524;80;21561;-56
2022/06/18 07:53:38;;;;;;;7.40;4.72;;;;;;;21.67;68.63;153102.56;1733722;81;21007;-56
2022/06/18 07:56:07;;;;;;;7.00;4.12;;;;;;;21.53;67.71;153067.22;1759714;81;20924;-56
2022/06/18 07:58:36;;;;;;;5.97;4.40;;;;;;;21.39;68.76;153031.94;1733469;82;21432;-56
2022/06/18 08:01:04;;;;;;;5.85;4.53;;;;;;;21.27;68.09;153001.88;1759561;81;22141;-56
2022/06/18 08:03:31;;;;;;;7.28;4.85;;;;;;;20.96;68.99;152922.16;1733678;81;20959;-55
2022/06/18 08:05:58;;;;;;;5.55;5.05;;;;;;;20.87;70.15;152901.22;1759741;81;20996;-56
2022/06/18 08:08:26;;;;;;;5.50;4.65;;;;;;;20.81;69.98;152885.55;1732754;82;21506;-61
2022/06/18 08:10:55;;;;;;;5.28;4.78;;;;;;;20.76;70.11;152872.44;1759360;80;21009;-61
2022/06/18 08:13:22;;;;;;;7.65;5.10;;;;;;;20.60;70.26;152833.22;1733933;82;21284;-62
2022/06/18 08:15:50;;;;;;;7.17;4.92;;;;;;;20.41;71.34;152783.58;1759816;80;21421;-56
2022/06/18 08:18:18;;;;;;;5.47;4.80;;;;;;;20.26;72.17;152745.70;1733068;82;21461;-61
2022/06/18 08:20:46;;;;;;;5.95;4.92;;;;;;;20.16;72.58;152722.22;1759563;81;20952;-61
2022/06/18 08:23:13;;;;;;;6.83;5.05;;;;;;;20.00;73.41;152681.69;1726774;82;21094;-61
2022/06/18 08:25:40;;;;;;;6.62;4.70;;;;;;;20.02;73.79;152686.95;1720908;81;21223;-62
2022/06/18 08:28:08;;;;;;;5.97;4.33;;;;;;;20.07;74.09;152697.39;1761943;80;21008;-61
2022/06/18 08:30:36;;;;;;;6.40;4.85;;;;;;;20.11;74.19;152707.83;1721109;83;21005;-62
2022/06/18 08:33:04;;;;;;;6.40;4.95;;;;;;;20.19;74.41;152728.72;1762017;80;20996;-62
2022/06/18 08:35:31;;;;;;;6.03;5.12;;;;;;;20.34;74.01;152766.63;1761989;81;21453;-61
2022/06/18 08:37:58;;;;;;;5.17;4.45;;;;;;;20.47;72.66;152799.28;1762159;80;20900;-62
2022/06/18 08:40:37;;;;;;;5.33;4.50;;;;;;;20.54;72.11;152816.23;1761763;81;20956;-62
2022/06/18 08:43:34;;;;;;;5.72;4.15;;;;;;;20.60;71.66;152833.22;1761932;81;20976;-61
2022/06/18 08:46:40;;;;;;;5.87;4.22;;;;;;;20.65;71.02;152843.67;1721192;83;21502;-61
2022/06/18 08:49:18;;;;;;;5.15;4.45;;;;;;;20.64;71.75;152841.06;1761952;80;21099;-61
2022/06/18 08:52:00;;;;;;;6.10;4.53;;;;;;;20.81;71.39;152884.27;1721105;83;21241;-62
2022/06/18 08:55:14;;;;;;;5.37;4.00;;;;;;;20.81;71.44;152885.55;1761874;80;21024;-61
2022/06/18 08:57:58;;;;;;;6.10;3.72;;;;;;;20.83;71.32;152890.77;1761905;81;21051;-61
2022/06/18 09:00:51;;;;;;;6.60;4.10;;;;;;;20.94;71.19;152918.20;1761757;81;21011;-62
2022/06/18 09:03:55;;;;;;;6.97;3.60;;;;;;;20.99;70.24;152929.98;1681300;85;22240;-62
2022/06/18 09:06:51;;;;;;;6.55;3.50;;;;;;;21.07;69.20;152950.88;1759284;81;21429;-62
2022/06/18 09:10:07;;;;;;;6.03;3.50;;;;;;;21.08;69.54;152953.48;1761995;80;21032;-63
2022/06/18 09:12:48;;;;;;;5.72;4.10;;;;;;;21.14;69.23;152969.20;1762063;80;21016;-60
2022/06/18 09:15:22;;;;;;;4.70;3.75;;;;;;;21.04;68.69;152943.05;1761841;81;21079;-62
2022/06/18 09:18:20;;;;;;;8.38;3.70;;;;;;;21.11;68.09;152961.38;1762200;81;20988;-61
2022/06/18 09:20:56;;;;;;;4.62;3.45;;;;;;;21.22;68.07;152988.81;1761853;80;21315;-62
2022/06/18 09:23:33;;;;;;;3.50;3.20;;;;;;;21.37;67.55;153025.38;1761410;81;21028;-61
2022/06/18 09:26:00;;;;;;;3.62;3.00;;;;;;;21.45;67.09;153047.61;1745864;81;21063;-61
2022/06/18 09:28:32;;;;;;;3.90;3.25;;;;;;;21.59;66.20;153081.63;1761677;80;20940;-61
2022/06/18 09:31:07;;;;;;;4.15;3.25;;;;;;;21.71;65.33;153113.02;1761760;81;21397;-62
2022/06/18 09:33:57;;;;;;;3.50;3.20;;;;;;;21.75;64.89;153122.19;1761872;80;21099;-61
2022/06/18 09:36:31;;;;;;;4.65;3.70;;;;;;;21.79;64.89;153131.36;1761970;80;21047;-61
2022/06/18 09:39:15;;;;;;;4.10;3.30;;;;;;;21.80;64.99;153133.97;1761800;80;21750;-61
2022/06/18 09:42:09;;;;;;;3.65;3.35;;;;;;;21.88;65.29;153156.20;1761658;81;21012;-61
2022/06/18 09:44:59;;;;;;;4.05;3.05;;;;;;;22.06;64.07;153199.34;1762033;80;20997;-55
2022/06/18 09:47:39;;;;;;;4.12;3.00;;;;;;;22.16;63.35;153226.81;1721060;83;21476;-56
2022/06/18 09:50:18;;;;;;;3.40;3.08;;;;;;;22.12;62.71;153216.34;1761867;80;21003;-56
2022/06/18 09:52:52;;;;;;;3.55;2.90;;;;;;;22.04;62.54;153195.39;1761983;81;21070;-56
2022/06/18 09:55:25;;;;;;;6.35;2.98;;;;;;;22.03;62.29;153194.11;1761996;80;21477;-56
2022/06/18 09:57:54;;;;;;;4.33;3.05;;;;;;;22.09;62.03;153208.47;1761959;81;20997;-56
2022/06/18 10:00:25;;;;;;;4.55;3.00;;;;;;;22.23;61.35;153243.81;1761900;81;21216;-56
2022/06/18 10:03:02;;;;;;;4.42;2.87;;;;;;;22.39;61.86;153283.02;1761846;81;20995;-56
2022/06/18 10:08:32;;;;;;;3.37;3.08;;;;;;;22.45;61.39;153298.75;1720959;83;21090;-55
2022/06/18 10:11:07;;;;;;;3.22;2.92;;;;;;;22.53;61.22;153319.70;1761696;81;21016;-55
2022/06/18 10:13:47;;;;;;;3.80;3.25;;;;;;;22.64;60.21;153345.84;1761942;81;21560;-57
2022/06/18 10:16:41;;;;;;;5.50;3.67;;;;;;;22.66;59.72;153352.41;1761928;81;21071;-55
2022/06/18 10:19:36;;;;;;;5.50;3.30;;;;;;;22.69;60.01;153358.97;1762133;81;20979;-55
2022/06/18 10:22:18;;;;;;;4.40;3.05;;;;;;;22.76;59.06;153377.27;1762058;80;28704;-57
2022/06/18 10:25:21;;;;;;;3.50;3.00;;;;;;;22.70;56.70;153361.58;1757836;80;21017;-56
2022/06/18 10:28:15;;;;;;;4.28;3.25;;;;;;;22.63;57.67;153344.56;1761908;80;21908;-55
2022/06/18 10:31:14;;;;;;;4.83;3.00;;;;;;;22.77;57.08;153379.88;1761652;81;20984;-55
2022/06/18 10:33:56;;;;;;;3.83;3.42;;;;;;;22.72;57.00;153366.81;1762014;81;21051;-57
2022/06/18 10:36:56;;;;;;;3.83;3.27;;;;;;;22.67;56.74;153353.73;1761575;81;21094;-55
2022/06/18 10:39:56;;;;;;;4.15;2.60;;;;;;;22.58;56.49;153332.78;1761349;81;21047;-56
2022/06/18 10:42:50;;;;;;;4.42;3.00;;;;;;;22.49;56.69;153309.25;1761953;81;22222;-56
2022/06/18 10:45:33;;;;;;;2.77;2.47;;;;;;;22.61;55.77;153340.63;1761442;81;20916;-56
2022/06/18 10:48:00;;;;;;;5.70;2.90;;;;;;;22.83;56.12;153395.56;1761895;80;20999;-56
2022/06/18 10:50:29;;;;;;;4.72;2.72;;;;;;;22.96;55.36;153426.98;1761782;81;20999;-56
2022/06/18 10:53:02;;;;;;;3.62;2.67;;;;;;;22.94;55.58;153421.77;1761635;81;21103;-56
2022/06/18 10:55:29;;;;;;;3.20;2.55;;;;;;;22.92;54.68;153417.81;1761521;81;21100;-54
2022/06/18 10:58:13;;;;;;;3.65;2.70;;;;;;;22.97;54.60;153429.59;1761742;81;21039;-54
2022/06/18 11:00:40;;;;;;;2.67;2.47;;;;;;;23.08;54.50;153457.08;1720945;83;21096;-56
2022/06/18 11:03:23;;;;;;;2.42;2.22;;;;;;;23.23;54.69;153495.02;1761947;81;20964;-55
2022/06/18 11:05:50;;;;;;;2.25;2.05;;;;;;;23.32;53.18;153518.61;1762175;81;20981;-56
2022/06/18 11:08:32;;;;;;;3.37;2.27;;;;;;;23.30;52.50;153513.38;1762157;80;21307;-56
2022/06/18 11:11:09;;;;;;;3.67;2.47;;;;;;;23.33;53.15;153521.27;1762134;80;20948;-55
2022/06/18 11:13:39;;;;;;;2.80;2.30;;;;;;;23.48;53.39;153559.22;1721073;83;21022;-57
2022/06/18 11:16:26;;;;;;;2.95;2.30;;;;;;;23.61;52.73;153591.94;1762267;80;20999;-56
2022/06/18 11:19:02;;;;;;;4.70;2.47;;;;;;;23.58;52.30;153584.09;1762138;81;21066;-56
2022/06/18 11:21:39;;;;;;;3.75;2.27;;;;;;;23.45;53.18;153552.66;1761981;81;21208;-56
2022/06/18 11:24:14;;;;;;;3.62;2.17;;;;;;;23.50;53.50;153563.11;1761165;80;20984;-56
2022/06/18 11:26:52;;;;;;;3.05;2.45;;;;;;;23.57;53.87;153581.47;1760975;80;21032;-56
2022/06/18 11:29:54;;;;;;;2.25;2.00;;;;;;;23.61;53.27;153591.94;1762022;81;21067;-56
2022/06/18 11:32:29;;;;;;;3.58;2.20;;;;;;;23.56;53.47;153578.86;1710855;83;21102;-55
2022/06/18 11:35:06;;;;;;;3.90;2.20;;;;;;;23.36;53.69;153529.11;1762325;80;25013;-56
2022/06/18 11:37:35;;;;;;;4.35;2.35;;;;;;;23.36;53.69;153529.11;1745102;81;21063;-56
2022/06/18 11:40:11;;;;;;;5.12;2.10;;;;;;;23.33;54.09;153521.27;1761991;81;20984;-56
2022/06/18 11:42:49;;;;;;;2.20;1.95;;;;;;;23.43;54.43;153547.42;1760128;81;20988;-56
2022/06/18 11:45:41;;;;;;;3.62;2.37;;;;;;;23.41;52.48;153540.86;1762170;81;21418;-56
2022/06/18 11:48:38;;;;;;;2.40;2.20;;;;;;;23.38;52.44;153533.02;1721154;82;21512;-56
2022/06/18 11:51:13;;;;;;;2.30;2.10;;;;;;;23.32;53.02;153518.61;1762102;81;21020;-57
2022/06/18 11:54:01;;;;;;;2.58;2.30;;;;;;;23.23;53.13;153496.34;1721061;83;21079;-57
2022/06/18 11:56:55;;;;;;;4.67;2.45;;;;;;;23.17;53.46;153480.63;1761620;80;21007;-57
2022/06/18 11:59:54;;;;;;;2.25;1.90;;;;;;;23.15;54.47;153475.39;1761085;81;21049;-56
2022/06/18 12:02:49;;;;;;;4.10;2.30;;;;;;;23.28;53.50;153508.14;1762072;81;21189;-57